createdAt,value
2022-11-15T00:10:21.245Z,11.20
2022-11-15T00:22:21.301Z,11.18
2022-11-15T00:34:21.320Z,11.17
2022-11-15T00:46:21.193Z,11.16
2022-11-15T00:58:21.255Z,11.15
2022-11-15T01:10:21.203Z,11.14
2022-11-15T01:22:21.187Z,11.13
2022-11-15T01:34:21.302Z,11.12
2022-11-15T01:46:21.256Z,11.11
2022-11-15T01:58:21.308Z,11.10
2022-11-15T02:10:21.286Z,11.09
2022-11-15T02:22:21.189Z,11.08
2022-11-15T02:34:21.192Z,11.08
2022-11-15T02:46:21.298Z,11.07
2022-11-15T02:58:21.191Z,11.05
2022-11-15T03:10:21.186Z,11.05
2022-11-15T03:22:21.275Z,11.03
2022-11-15T03:34:21.304Z,11.04
2022-11-15T03:46:21.188Z,11.03
2022-11-15T03:58:21.189Z,11.02
2022-11-15T04:10:21.194Z,11.02
2022-11-15T04:22:21.193Z,11.01
2022-11-15T04:34:21.278Z,11.00
2022-11-15T04:46:21.244Z,11.00
2022-11-15T04:58:21.292Z,10.99
2022-11-15T05:10:21.192Z,10.98
2022-11-15T05:22:21.227Z,10.96
2022-11-15T05:34:21.276Z,10.97
2022-11-15T05:46:21.190Z,10.97
2022-11-15T05:58:21.299Z,10.96
2022-11-15T06:10:21.196Z,10.96
2022-11-15T06:22:21.194Z,10.95
2022-11-15T06:34:21.308Z,10.95
2022-11-15T06:46:21.339Z,10.94
2022-11-15T06:58:21.303Z,10.94
2022-11-15T07:10:21.772Z,10.94
2022-11-15T07:22:21.197Z,10.94
2022-11-15T07:34:21.202Z,10.93
2022-11-15T07:46:21.299Z,10.94
2022-11-15T07:58:21.276Z,10.94
2022-11-15T08:10:21.194Z,10.93
2022-11-15T08:22:21.190Z,10.93
2022-11-15T08:34:21.199Z,10.96
2022-11-15T08:46:21.278Z,10.95
2022-11-15T08:58:21.264Z,10.96
2022-11-15T09:10:21.283Z,10.96
2022-11-15T09:22:21.241Z,10.98
2022-11-15T09:34:21.204Z,11.00
2022-11-15T09:46:21.272Z,11.03
2022-11-15T09:58:21.196Z,11.11
2022-11-15T10:10:21.189Z,11.13
2022-11-15T10:22:21.310Z,11.27
2022-11-15T10:34:21.236Z,11.38
2022-11-15T10:46:45.194Z,11.39
2022-11-15T10:58:21.260Z,11.53
2022-11-15T11:10:44.568Z,11.49
2022-11-15T11:22:21.191Z,11.53
2022-11-15T11:34:21.192Z,11.65
2022-11-15T11:46:21.191Z,11.74
2022-11-15T11:58:21.194Z,11.82
2022-11-15T12:10:21.193Z,11.92
2022-11-15T12:22:21.192Z,11.94
2022-11-15T12:34:21.290Z,11.94
2022-11-15T12:46:21.273Z,11.93
2022-11-15T12:58:21.314Z,11.95
2022-11-15T13:10:26.604Z,11.96
2022-11-15T13:22:21.197Z,12.03
2022-11-15T13:34:49.489Z,12.01
2022-11-15T13:46:21.251Z,12.02
2022-11-15T13:58:24.141Z,12.02
2022-11-15T14:10:21.200Z,12.02
2022-11-15T14:22:21.306Z,12.03
2022-11-15T14:34:21.202Z,12.02
2022-11-15T14:46:22.534Z,12.02
2022-11-15T14:58:21.282Z,12.00
2022-11-15T15:10:39.401Z,11.99
2022-11-15T15:22:21.318Z,11.98
2022-11-15T15:34:21.200Z,11.97
2022-11-15T15:46:21.197Z,11.95
2022-11-15T15:58:21.185Z,11.94
2022-11-15T16:10:21.294Z,11.93
2022-11-15T16:22:21.302Z,11.90
2022-11-15T16:34:21.199Z,11.90
2022-11-15T16:46:21.307Z,11.89
2022-11-15T16:58:21.297Z,11.87
2022-11-15T17:10:21.300Z,11.87
2022-11-15T17:22:21.287Z,11.84
2022-11-15T17:34:21.196Z,11.84
2022-11-15T17:46:21.289Z,11.82
2022-11-15T17:58:21.273Z,11.81
2022-11-15T18:10:21.203Z,11.79
2022-11-15T18:22:21.310Z,11.79
2022-11-15T18:34:21.194Z,11.78
2022-11-15T18:46:21.249Z,11.77
2022-11-15T18:58:21.310Z,11.75
2022-11-15T19:10:21.303Z,11.75
2022-11-15T19:22:21.191Z,11.73
2022-11-15T19:34:21.208Z,11.71
2022-11-15T19:46:21.202Z,11.71
2022-11-15T19:58:21.194Z,11.70
2022-11-15T20:10:21.204Z,11.69
2022-11-15T20:22:21.207Z,11.68
2022-11-15T20:34:21.194Z,11.67
2022-11-15T20:46:21.192Z,11.66
2022-11-15T20:58:21.256Z,11.65
2022-11-15T21:10:21.298Z,11.63
2022-11-15T21:22:21.189Z,11.62
2022-11-15T21:34:21.204Z,11.61
2022-11-15T21:46:21.245Z,11.61
2022-11-15T21:58:21.305Z,11.59
2022-11-15T22:10:21.308Z,11.58
2022-11-15T22:22:21.187Z,11.56
2022-11-15T22:34:21.190Z,11.56
2022-11-15T22:46:21.190Z,11.55
2022-11-15T22:58:21.319Z,11.53
2022-11-15T23:10:21.287Z,11.53
2022-11-15T23:22:21.240Z,11.52
2022-11-15T23:34:22.502Z,11.51
2022-11-15T23:46:21.198Z,11.49
2022-11-15T23:58:21.239Z,11.47
